createdAt,value
2023-01-15T00:02:19.659Z,1.40
2023-01-15T00:04:46.780Z,1.80
2023-01-15T00:07:13.826Z,1.83
2023-01-15T00:09:40.915Z,1.77
2023-01-15T00:12:07.973Z,1.25
2023-01-15T00:14:34.981Z,1.50
2023-01-15T00:17:02.021Z,1.65
2023-01-15T00:19:29.037Z,2.22
2023-01-15T00:21:56.041Z,1.63
2023-01-15T00:24:41.481Z,1.88
2023-01-15T00:27:29.444Z,1.60
2023-01-15T00:29:56.729Z,1.80
2023-01-15T00:32:23.708Z,1.67
2023-01-15T00:34:50.772Z,1.83
2023-01-15T00:37:17.802Z,1.50
2023-01-15T00:39:44.943Z,1.83
2023-01-15T00:42:12.731Z,2.10
2023-01-15T00:44:39.732Z,1.50
2023-01-15T00:47:09.026Z,1.80
2023-01-15T00:49:35.997Z,1.30
2023-01-15T00:52:03.029Z,1.45
2023-01-15T00:54:30.340Z,1.90
2023-01-15T00:56:58.198Z,1.63
2023-01-15T00:59:25.312Z,1.80
2023-01-15T01:01:53.188Z,1.25
2023-01-15T01:04:20.272Z,1.55
2023-01-15T01:06:47.297Z,1.30
2023-01-15T01:09:16.077Z,1.45
2023-01-15T01:11:43.766Z,1.85
2023-01-15T01:14:12.334Z,1.40
2023-01-15T01:16:42.102Z,1.38
2023-01-15T01:19:20.459Z,1.40
2023-01-15T01:24:17.913Z,1.52
2023-01-15T01:26:45.949Z,1.20
2023-01-15T01:29:14.340Z,1.48
2023-01-15T01:31:41.545Z,1.27
2023-01-15T01:34:10.319Z,1.80
2023-01-15T01:36:39.363Z,1.38
2023-01-15T01:39:07.764Z,1.40
2023-01-15T01:41:35.196Z,1.40
2023-01-15T01:44:05.019Z,1.30
2023-01-15T01:46:34.258Z,1.92
2023-01-15T01:49:13.109Z,2.13
2023-01-15T01:52:07.003Z,1.40
2023-01-15T01:54:36.199Z,1.10
2023-01-15T01:57:04.535Z,1.50
2023-01-15T01:59:32.360Z,1.70
2023-01-15T02:02:00.711Z,1.47
2023-01-15T02:04:29.169Z,1.38
2023-01-15T02:06:56.941Z,1.20
2023-01-15T02:09:25.229Z,1.30
2023-01-15T02:11:57.113Z,1.20
2023-01-15T02:14:37.014Z,1.80
2023-01-15T02:17:33.510Z,1.40
2023-01-15T02:20:14.637Z,1.33
2023-01-15T02:23:02.674Z,1.88
2023-01-15T02:26:16.794Z,1.23
2023-01-15T02:28:48.570Z,1.38
2023-01-15T02:31:24.385Z,1.90
2023-01-15T02:34:05.835Z,1.80
2023-01-15T02:36:39.241Z,1.50
2023-01-15T02:39:12.330Z,1.20
2023-01-15T02:41:45.402Z,1.27
2023-01-15T02:44:15.594Z,1.13
2023-01-15T02:46:44.273Z,0.82
2023-01-15T02:49:15.587Z,1.08
2023-01-15T02:52:10.242Z,1.10
2023-01-15T02:54:43.953Z,1.17
2023-01-15T02:57:12.170Z,1.30
2023-01-15T02:59:42.787Z,1.20
2023-01-15T03:02:25.375Z,1.35
2023-01-15T03:05:00.398Z,0.98
2023-01-15T03:07:35.472Z,1.08
2023-01-15T03:10:05.095Z,1.35
2023-01-15T03:13:03.230Z,0.93
2023-01-15T03:16:27.713Z,1.17
2023-01-15T03:19:09.868Z,1.10
2023-01-15T03:21:58.295Z,1.20
2023-01-15T03:27:14.348Z,1.17
2023-01-15T03:29:58.568Z,1.20
2023-01-15T03:32:26.469Z,1.75
2023-01-15T03:34:55.900Z,1.35
2023-01-15T03:37:27.917Z,1.15
2023-01-15T03:39:58.087Z,1.55
2023-01-15T03:42:37.873Z,1.10
2023-01-15T03:45:26.249Z,1.52
2023-01-15T03:48:30.243Z,1.30
2023-01-15T03:51:16.963Z,0.95
2023-01-15T03:53:54.606Z,1.10
2023-01-15T03:56:31.692Z,1.00
2023-01-15T03:59:13.352Z,1.40
2023-01-15T04:02:03.913Z,1.10
2023-01-15T04:04:31.911Z,1.20
2023-01-15T04:07:02.841Z,1.02
2023-01-15T04:09:31.058Z,1.50
2023-01-15T04:12:01.037Z,1.05
2023-01-15T04:14:32.263Z,0.93
2023-01-15T04:17:05.448Z,1.15
2023-01-15T04:19:32.500Z,1.20
2023-01-15T04:22:03.386Z,0.95
2023-01-15T04:24:30.396Z,0.80
2023-01-15T04:26:57.349Z,1.05
2023-01-15T04:29:24.351Z,0.90
2023-01-15T04:31:53.679Z,1.20
2023-01-15T04:34:20.816Z,1.02
2023-01-15T04:36:48.267Z,1.00
2023-01-15T04:39:15.484Z,0.88
2023-01-15T04:42:00.912Z,1.00
2023-01-15T04:44:29.295Z,1.00
2023-01-15T04:46:57.666Z,1.00
2023-01-15T04:49:24.735Z,0.90
2023-01-15T04:51:51.977Z,1.30
2023-01-15T04:54:19.109Z,0.80
2023-01-15T04:56:51.919Z,0.82
2023-01-15T04:59:21.735Z,0.93
2023-01-15T05:02:03.156Z,0.98
2023-01-15T05:04:31.848Z,0.90
2023-01-15T05:06:59.063Z,0.97
2023-01-15T05:09:26.125Z,0.80
2023-01-15T05:11:53.146Z,1.05
2023-01-15T05:14:20.270Z,0.80
2023-01-15T05:16:47.307Z,0.90
2023-01-15T05:19:14.281Z,1.20
2023-01-15T05:21:43.554Z,0.98
2023-01-15T05:24:14.583Z,1.20
2023-01-15T05:26:42.324Z,1.00
2023-01-15T05:29:11.426Z,0.95
2023-01-15T05:31:39.719Z,0.88
2023-01-15T05:34:06.683Z,1.35
2023-01-15T05:36:33.916Z,1.08
2023-01-15T05:39:02.392Z,0.70
2023-01-15T05:44:17.468Z,0.90
2023-01-15T05:46:45.571Z,1.02
2023-01-15T05:49:18.061Z,0.63
2023-01-15T05:51:45.938Z,0.85
2023-01-15T05:54:16.357Z,0.95
2023-01-15T05:56:43.832Z,0.63
2023-01-15T05:59:11.062Z,1.20
2023-01-15T06:01:38.278Z,0.75
2023-01-15T06:04:06.654Z,0.63
2023-01-15T06:06:35.559Z,0.82
2023-01-15T06:09:04.254Z,0.80
2023-01-15T06:13:58.639Z,0.65
2023-01-15T06:16:25.820Z,1.42
2023-01-15T06:18:53.244Z,1.00
2023-01-15T06:21:20.212Z,0.75
2023-01-15T06:23:47.614Z,0.90
2023-01-15T06:26:17.102Z,0.98
2023-01-15T06:28:45.353Z,0.80
2023-01-15T06:31:15.288Z,0.95
2023-01-15T06:33:42.676Z,0.60
2023-01-15T06:36:12.405Z,1.17
2023-01-15T06:38:39.989Z,1.08
2023-01-15T06:41:30.373Z,0.80
2023-01-15T06:44:16.499Z,0.80
2023-01-15T06:47:09.485Z,0.75
2023-01-15T06:49:37.401Z,1.27
2023-01-15T06:52:05.480Z,0.80
2023-01-15T06:54:34.351Z,0.85
2023-01-15T06:57:01.397Z,1.10
2023-01-15T06:59:28.409Z,0.93
2023-01-15T07:01:55.715Z,0.93
2023-01-15T07:04:22.902Z,1.10
2023-01-15T07:06:49.897Z,0.90
2023-01-15T07:09:16.832Z,0.77
2023-01-15T07:11:49.963Z,1.15
2023-01-15T07:14:22.872Z,1.50
2023-01-15T07:16:50.291Z,1.50
2023-01-15T07:19:18.694Z,1.17
2023-01-15T07:21:46.423Z,1.80
2023-01-15T07:24:14.238Z,2.17
2023-01-15T07:26:43.030Z,2.40
2023-01-15T07:29:10.229Z,2.58
2023-01-15T07:31:38.080Z,3.17
2023-01-15T07:34:05.628Z,2.35
2023-01-15T07:36:32.890Z,3.13
2023-01-15T07:38:59.926Z,2.50
2023-01-15T07:41:45.318Z,2.90
2023-01-15T07:44:31.252Z,2.97
2023-01-15T07:47:17.396Z,2.97
2023-01-15T07:49:48.781Z,2.75
2023-01-15T07:52:21.149Z,3.33
2023-01-15T07:54:50.117Z,2.67
2023-01-15T07:57:19.738Z,3.13
2023-01-15T07:59:46.710Z,3.20
2023-01-15T08:02:13.770Z,3.10
2023-01-15T08:04:41.049Z,2.70
2023-01-15T08:07:08.557Z,2.72
2023-01-15T08:09:36.052Z,2.53
2023-01-15T08:12:22.481Z,2.35
2023-01-15T08:15:08.581Z,2.42
2023-01-15T08:17:37.246Z,1.90
2023-01-15T08:22:32.891Z,0.82
2023-01-15T08:24:59.935Z,1.10
2023-01-15T08:27:29.072Z,0.70
2023-01-15T08:29:56.828Z,0.68
2023-01-15T08:32:25.060Z,0.77
2023-01-15T08:34:52.475Z,0.47
2023-01-15T08:37:19.526Z,0.60
2023-01-15T08:39:46.548Z,0.50
2023-01-15T08:42:13.825Z,0.30
2023-01-15T08:44:40.846Z,0.40
2023-01-15T08:47:07.955Z,0.47
2023-01-15T08:49:34.968Z,0.50
2023-01-15T08:52:01.987Z,0.40
2023-01-15T08:54:29.769Z,0.40
2023-01-15T08:56:57.031Z,0.30
2023-01-15T08:59:24.131Z,0.40
2023-01-15T09:01:51.215Z,0.25
2023-01-15T09:04:20.477Z,0.30
2023-01-15T09:06:48.724Z,0.38
2023-01-15T09:09:15.860Z,0.38
2023-01-15T09:11:44.370Z,0.30
2023-01-15T09:14:59.563Z,0.30
2023-01-15T09:17:01.904Z,0.20
2023-01-15T09:19:30.491Z,0.20
2023-01-15T09:21:57.725Z,0.35
2023-01-15T09:24:24.926Z,0.30
2023-01-15T09:26:53.462Z,0.20
2023-01-15T09:31:47.641Z,0.10
2023-01-15T09:34:14.613Z,0.20
2023-01-15T09:36:41.730Z,0.20
2023-01-15T09:39:08.972Z,0.60
2023-01-15T09:42:05.347Z,0.10
2023-01-15T09:44:53.876Z,0.20
2023-01-15T09:47:33.206Z,0.30
2023-01-15T09:50:12.646Z,0.20
2023-01-15T09:53:21.711Z,0.30
2023-01-15T09:55:53.340Z,0.40
2023-01-15T09:58:26.812Z,0.30
2023-01-15T10:00:54.310Z,0.25
2023-01-15T10:04:04.796Z,0.20
2023-01-15T10:06:52.107Z,0.40
2023-01-15T10:09:25.084Z,0.30
2023-01-15T10:12:26.240Z,0.30
2023-01-15T10:15:02.977Z,0.28
2023-01-15T10:17:36.889Z,0.43
2023-01-15T10:20:04.268Z,0.40
2023-01-15T10:22:48.664Z,0.50
2023-01-15T10:25:22.265Z,0.60
2023-01-15T10:27:52.360Z,0.70
2023-01-15T10:30:34.713Z,0.70
2023-01-15T10:33:20.578Z,0.50
2023-01-15T10:35:50.596Z,0.80
2023-01-15T10:38:54.277Z,0.80
2023-01-15T10:41:32.043Z,0.90
2023-01-15T10:44:21.033Z,1.02
2023-01-15T10:46:58.537Z,0.90
2023-01-15T10:49:29.900Z,1.00
2023-01-15T10:51:58.339Z,0.95
2023-01-15T10:54:44.742Z,1.13
2023-01-15T10:57:29.080Z,1.42
2023-01-15T11:00:01.457Z,1.90
2023-01-15T11:02:45.216Z,3.25
2023-01-15T11:05:16.536Z,3.00
2023-01-15T11:08:10.347Z,3.83
2023-01-15T11:10:36.884Z,4.30
2023-01-15T11:13:49.020Z,4.13
2023-01-15T11:16:39.015Z,4.45
2023-01-15T11:19:35.127Z,5.20
2023-01-15T11:22:10.306Z,4.68
2023-01-15T11:24:45.157Z,4.75
2023-01-15T11:27:17.611Z,3.92
2023-01-15T11:29:45.612Z,3.03
2023-01-15T11:32:37.331Z,2.58
2023-01-15T11:35:16.470Z,2.03
2023-01-15T11:37:44.089Z,2.42
2023-01-15T11:40:20.154Z,1.80
2023-01-15T11:43:07.152Z,1.33
2023-01-15T11:45:53.411Z,1.33
2023-01-15T11:48:41.863Z,1.40
2023-01-15T11:51:14.105Z,1.25
2023-01-15T11:53:53.452Z,1.38
2023-01-15T11:56:27.403Z,1.30
2023-01-15T11:59:01.288Z,1.52
2023-01-15T12:01:49.577Z,1.70
2023-01-15T12:04:30.199Z,2.10
2023-01-15T12:07:36.285Z,2.17
2023-01-15T12:10:03.738Z,2.10
2023-01-15T12:12:55.852Z,2.03
2023-01-15T12:15:40.265Z,2.65
2023-01-15T12:18:29.663Z,2.97
2023-01-15T12:21:15.687Z,3.10
2023-01-15T12:24:08.999Z,3.55
2023-01-15T12:26:54.892Z,4.35
2023-01-15T12:29:29.464Z,5.97
2023-01-15T12:32:04.782Z,6.93
2023-01-15T12:34:55.754Z,7.75
2023-01-15T12:37:50.667Z,7.53
2023-01-15T12:40:44.871Z,7.20
2023-01-15T12:43:40.389Z,8.18
2023-01-15T12:46:10.556Z,8.32
2023-01-15T12:48:45.588Z,9.48
2023-01-15T12:51:19.442Z,8.13
2023-01-15T12:54:04.439Z,8.45
2023-01-15T12:56:34.567Z,8.07
2023-01-15T12:59:28.442Z,8.98
2023-01-15T13:01:59.680Z,9.43
2023-01-15T13:04:58.994Z,8.73
2023-01-15T13:07:41.158Z,7.45
2023-01-15T13:10:20.248Z,6.85
2023-01-15T13:12:47.608Z,6.37
2023-01-15T13:15:17.724Z,7.13
2023-01-15T13:17:50.459Z,7.30
2023-01-15T13:20:41.210Z,7.47
2023-01-15T13:23:18.432Z,6.22
2023-01-15T13:25:55.466Z,5.60
2023-01-15T13:28:54.498Z,5.28
2023-01-15T13:31:40.428Z,5.30
2023-01-15T13:34:45.660Z,5.68
2023-01-15T13:37:26.895Z,5.68
2023-01-15T13:40:20.239Z,5.38
2023-01-15T13:42:49.178Z,5.30
2023-01-15T13:45:37.455Z,4.53
2023-01-15T13:48:18.927Z,4.40
2023-01-15T13:51:00.228Z,4.68
2023-01-15T13:53:45.136Z,5.20
2023-01-15T13:56:15.792Z,4.80
2023-01-15T13:58:56.698Z,4.47
2023-01-15T14:01:26.769Z,4.78
2023-01-15T14:04:16.489Z,4.45
2023-01-15T14:06:48.942Z,3.92
2023-01-15T14:09:18.732Z,4.60
2023-01-15T14:12:04.424Z,3.95
2023-01-15T14:14:53.171Z,3.40
2023-01-15T14:17:44.345Z,3.30
2023-01-15T14:20:49.006Z,3.60
2023-01-15T14:24:03.047Z,3.88
2023-01-15T14:26:46.579Z,3.80
2023-01-15T14:30:04.120Z,3.95
2023-01-15T14:32:36.902Z,4.10
2023-01-15T14:35:04.791Z,4.80
2023-01-15T14:38:00.187Z,5.78
2023-01-15T14:40:32.599Z,5.47
2023-01-15T14:43:07.120Z,6.15
2023-01-15T14:45:47.992Z,5.35
2023-01-15T14:48:28.157Z,5.78
2023-01-15T14:51:07.658Z,5.60
2023-01-15T14:53:38.686Z,5.47
2023-01-15T14:56:32.742Z,5.85
2023-01-15T14:59:16.696Z,5.15
2023-01-15T15:01:50.460Z,4.65
2023-01-15T15:04:36.072Z,4.68
2023-01-15T15:07:24.581Z,3.58
2023-01-15T15:10:19.347Z,3.30
2023-01-15T15:13:04.651Z,4.28
2023-01-15T15:15:41.850Z,4.25
2023-01-15T15:18:11.853Z,4.82
2023-01-15T15:20:53.909Z,4.45
2023-01-15T15:23:38.853Z,4.40
2023-01-15T15:26:18.726Z,4.63
2023-01-15T15:29:07.302Z,6.03
2023-01-15T15:31:49.254Z,5.32
2023-01-15T15:34:40.545Z,4.85
2023-01-15T15:37:19.269Z,4.60
2023-01-15T15:39:55.041Z,4.28
2023-01-15T15:42:54.931Z,5.55
2023-01-15T15:45:50.827Z,5.15
2023-01-15T15:48:41.994Z,5.93
2023-01-15T15:51:40.185Z,4.30
2023-01-15T15:54:17.646Z,4.65
2023-01-15T15:56:52.622Z,5.65
2023-01-15T15:59:26.807Z,5.88
2023-01-15T16:01:55.044Z,6.30
2023-01-15T16:04:24.251Z,6.47
2023-01-15T16:06:52.065Z,7.13
2023-01-15T16:09:24.389Z,6.43
2023-01-15T16:11:53.925Z,6.95
2023-01-15T16:14:22.734Z,6.30
2023-01-15T16:16:51.091Z,5.00
2023-01-15T16:19:22.943Z,6.13
2023-01-15T16:21:51.706Z,5.53
2023-01-15T16:24:28.377Z,5.00
2023-01-15T16:27:07.925Z,4.82
2023-01-15T16:29:36.171Z,4.20
2023-01-15T16:32:12.092Z,5.00
2023-01-15T16:34:40.543Z,4.45
2023-01-15T16:37:30.717Z,5.10
2023-01-15T16:40:01.201Z,5.53
2023-01-15T16:42:40.249Z,5.97
2023-01-15T16:45:27.787Z,6.20
2023-01-15T16:48:22.973Z,6.20
2023-01-15T16:50:51.312Z,6.55
2023-01-15T16:53:44.585Z,5.47
2023-01-15T16:56:46.787Z,6.07
2023-01-15T16:59:22.067Z,6.13
2023-01-15T17:01:52.472Z,5.70
2023-01-15T17:04:35.724Z,5.95
2023-01-15T17:07:23.980Z,5.30
2023-01-15T17:09:53.523Z,5.47
2023-01-15T17:12:42.385Z,5.68
2023-01-15T17:15:15.434Z,4.90
2023-01-15T17:17:53.410Z,4.72
2023-01-15T17:20:27.106Z,4.47
2023-01-15T17:22:55.106Z,4.60
2023-01-15T17:25:35.059Z,4.72
2023-01-15T17:28:03.407Z,5.10
2023-01-15T17:30:31.518Z,5.07
2023-01-15T17:32:59.674Z,4.85
2023-01-15T17:35:35.198Z,5.10
2023-01-15T17:38:03.057Z,4.72
2023-01-15T17:40:30.080Z,4.90
2023-01-15T17:42:59.231Z,5.53
2023-01-15T17:45:28.403Z,4.68
2023-01-15T17:47:55.596Z,5.13
2023-01-15T17:50:23.387Z,5.75
2023-01-15T17:52:50.807Z,6.18
2023-01-15T17:55:39.217Z,6.60
2023-01-15T18:01:12.602Z,7.20
2023-01-15T18:04:05.872Z,7.88
2023-01-15T18:06:34.226Z,7.63
2023-01-15T18:09:04.276Z,8.38
2023-01-15T18:11:31.396Z,8.93
2023-01-15T18:13:58.522Z,8.05
2023-01-15T18:16:26.464Z,8.55
2023-01-15T18:18:54.128Z,8.48
2023-01-15T18:21:21.920Z,8.18
2023-01-15T18:23:49.052Z,8.48
2023-01-15T18:26:16.042Z,8.20
2023-01-15T18:28:45.217Z,8.23
2023-01-15T18:31:12.351Z,9.40
2023-01-15T18:33:39.568Z,10.45
2023-01-15T18:36:09.433Z,11.00
2023-01-15T18:38:38.642Z,11.90
2023-01-15T18:41:33.992Z,10.18
2023-01-15T18:44:23.157Z,8.85
2023-01-15T18:46:54.028Z,8.55
2023-01-15T18:49:21.089Z,9.48
2023-01-15T18:52:06.896Z,8.90
2023-01-15T18:54:34.439Z,9.15
2023-01-15T18:57:01.508Z,8.77
2023-01-15T18:59:28.520Z,8.80
2023-01-15T19:01:56.630Z,8.85
2023-01-15T19:04:23.829Z,10.48
2023-01-15T19:06:51.045Z,10.32
2023-01-15T19:09:21.090Z,9.32
2023-01-15T19:11:48.156Z,10.02
2023-01-15T19:14:33.996Z,7.80
2023-01-15T19:17:19.536Z,8.07
2023-01-15T19:19:46.811Z,7.97
2023-01-15T19:22:32.170Z,8.27
2023-01-15T19:24:59.188Z,8.15
2023-01-15T19:27:26.205Z,7.60
2023-01-15T19:29:53.349Z,9.75
2023-01-15T19:32:20.312Z,7.53
2023-01-15T19:34:47.415Z,6.90
2023-01-15T19:37:14.558Z,6.53
2023-01-15T19:39:41.567Z,6.47
2023-01-15T19:42:28.412Z,5.60
2023-01-15T19:45:13.811Z,5.97
2023-01-15T19:48:00.520Z,5.85
2023-01-15T19:50:44.481Z,6.95
2023-01-15T19:53:12.175Z,6.78
2023-01-15T19:55:42.230Z,7.50
2023-01-15T19:58:11.276Z,7.22
2023-01-15T20:00:40.505Z,8.10
2023-01-15T20:03:10.062Z,6.57
2023-01-15T20:05:44.961Z,5.40
2023-01-15T20:08:17.705Z,6.55
2023-01-15T20:10:47.604Z,5.75
2023-01-15T20:13:38.628Z,7.00
2023-01-15T20:16:11.417Z,8.13
2023-01-15T20:18:39.841Z,8.38
2023-01-15T20:21:14.786Z,10.23
2023-01-15T20:23:43.067Z,13.30
2023-01-15T20:26:12.898Z,14.73
2023-01-15T20:28:42.322Z,16.83
2023-01-15T20:31:17.555Z,18.33
2023-01-15T20:33:44.884Z,18.35
2023-01-15T20:36:12.000Z,16.48
2023-01-15T20:38:39.015Z,14.35
2023-01-15T20:41:28.899Z,10.57
2023-01-15T20:44:14.703Z,9.63
2023-01-15T20:46:41.848Z,8.93
2023-01-15T20:49:27.406Z,7.85
2023-01-15T20:51:55.533Z,6.78
2023-01-15T20:54:23.454Z,7.20
2023-01-15T20:56:50.641Z,7.90
2023-01-15T20:59:17.667Z,8.05
2023-01-15T21:01:44.901Z,8.63
2023-01-15T21:04:13.729Z,11.35
2023-01-15T21:06:41.236Z,11.07
2023-01-15T21:09:08.269Z,13.05
2023-01-15T21:11:35.382Z,13.77
2023-01-15T21:14:02.415Z,14.05
2023-01-15T21:16:29.729Z,14.73
2023-01-15T21:18:59.088Z,16.05
2023-01-15T21:21:26.085Z,17.45
2023-01-15T21:23:53.067Z,22.17
2023-01-15T21:26:20.139Z,18.83
2023-01-15T21:28:47.255Z,16.20
2023-01-15T21:31:14.736Z,12.85
2023-01-15T21:33:41.831Z,12.52
2023-01-15T21:36:13.921Z,10.82
2023-01-15T21:38:41.468Z,9.30
2023-01-15T21:41:15.725Z,9.98
2023-01-15T21:44:02.889Z,9.25
2023-01-15T21:46:30.062Z,8.52
2023-01-15T21:48:59.705Z,7.00
2023-01-15T21:51:30.651Z,7.57
2023-01-15T21:54:00.030Z,6.90
2023-01-15T21:56:30.884Z,6.80
2023-01-15T21:58:58.009Z,7.70
2023-01-15T22:01:26.033Z,8.32
2023-01-15T22:03:53.079Z,7.50
2023-01-15T22:06:20.110Z,6.78
2023-01-15T22:08:47.076Z,7.18
2023-01-15T22:11:14.187Z,5.93
2023-01-15T22:13:41.160Z,5.90
2023-01-15T22:16:09.006Z,6.68
2023-01-15T22:18:36.179Z,8.30
2023-01-15T22:21:06.099Z,10.52
2023-01-15T22:23:34.594Z,12.98
2023-01-15T22:26:01.977Z,12.95
2023-01-15T22:28:29.008Z,11.88
2023-01-15T22:30:56.167Z,10.02
2023-01-15T22:33:23.206Z,8.15
2023-01-15T22:35:57.971Z,7.80
2023-01-15T22:38:25.073Z,6.47
2023-01-15T22:40:52.196Z,6.60
2023-01-15T22:43:19.227Z,5.85
2023-01-15T22:45:46.290Z,6.47
2023-01-15T22:48:13.341Z,6.75
2023-01-15T22:50:40.422Z,6.32
2023-01-15T22:53:07.761Z,6.90
2023-01-15T22:55:34.951Z,6.63
2023-01-15T22:58:02.114Z,6.32
2023-01-15T23:00:29.203Z,6.00
2023-01-15T23:02:56.395Z,6.10
2023-01-15T23:05:24.452Z,6.93
2023-01-15T23:07:51.685Z,6.25
2023-01-15T23:10:18.891Z,5.43
2023-01-15T23:12:46.151Z,5.65
2023-01-15T23:15:14.163Z,6.63
2023-01-15T23:17:41.223Z,7.65
2023-01-15T23:20:10.500Z,7.22
2023-01-15T23:22:37.501Z,8.43
2023-01-15T23:25:04.988Z,7.75
2023-01-15T23:27:32.185Z,6.68
2023-01-15T23:29:59.411Z,6.80
2023-01-15T23:32:26.835Z,7.68
2023-01-15T23:34:53.826Z,8.35
2023-01-15T23:37:21.104Z,6.45
2023-01-15T23:39:48.154Z,7.35
2023-01-15T23:42:33.754Z,6.63
2023-01-15T23:45:19.572Z,6.35
2023-01-15T23:47:46.697Z,5.10
2023-01-15T23:50:13.732Z,5.40
2023-01-15T23:52:40.814Z,5.53
2023-01-15T23:55:08.213Z,5.63
2023-01-15T23:57:35.252Z,4.93
